createdAt,value
2019-02-27T00:00:53.560Z,1026.64
2019-02-27T00:01:53.538Z,1026.60
2019-02-27T00:02:53.796Z,1026.58
2019-02-27T00:03:53.522Z,1026.61
2019-02-27T00:04:53.504Z,1026.61
2019-02-27T00:05:53.826Z,1026.61
2019-02-27T00:06:53.863Z,1026.62
2019-02-27T00:07:54.870Z,1026.60
2019-02-27T00:08:53.466Z,1026.59
2019-02-27T00:09:53.449Z,1026.59
2019-02-27T00:10:54.022Z,1026.63
2019-02-27T00:11:53.487Z,1026.62
2019-02-27T00:12:53.688Z,1026.60
2019-02-27T00:13:57.643Z,1026.64
2019-02-27T00:14:54.182Z,1026.66
2019-02-27T00:15:53.392Z,1026.61
2019-02-27T00:16:53.547Z,1026.64
2019-02-27T00:17:53.598Z,1026.60
2019-02-27T00:18:53.785Z,1026.59
2019-02-27T00:19:53.330Z,1026.59
2019-02-27T00:20:55.014Z,1026.55
2019-02-27T00:21:53.335Z,1026.59
2019-02-27T00:22:53.330Z,1026.59
2019-02-27T00:23:56.678Z,1026.57
2019-02-27T00:24:53.275Z,1026.59
2019-02-27T00:25:53.285Z,1026.59
2019-02-27T00:26:53.718Z,1026.58
2019-02-27T00:27:53.257Z,1026.53
2019-02-27T00:28:55.939Z,1026.57
2019-02-27T00:29:53.226Z,1026.55
2019-02-27T00:30:53.245Z,1026.55
2019-02-27T00:31:53.458Z,1026.52
2019-02-27T00:32:53.193Z,1026.52
2019-02-27T00:33:53.234Z,1026.49
2019-02-27T00:34:53.171Z,1026.47
2019-02-27T00:35:53.161Z,1026.41
2019-02-27T00:36:54.150Z,1026.48
2019-02-27T00:37:53.305Z,1026.53
2019-02-27T00:38:53.138Z,1026.50
2019-02-27T00:39:53.109Z,1026.48
2019-02-27T00:40:53.125Z,1026.54
2019-02-27T00:41:53.088Z,1026.46
2019-02-27T00:42:54.282Z,1026.40
2019-02-27T00:43:53.484Z,1026.39
2019-02-27T00:44:53.103Z,1026.40
2019-02-27T00:45:53.184Z,1026.41
2019-02-27T00:46:53.051Z,1026.46
2019-02-27T00:47:53.830Z,1026.43
2019-02-27T00:48:53.305Z,1026.51
2019-02-27T00:49:54.175Z,1026.53
2019-02-27T00:50:53.020Z,1026.47
2019-02-27T00:51:52.979Z,1026.49
2019-02-27T00:52:53.304Z,1026.46
2019-02-27T00:53:52.959Z,1026.46
2019-02-27T00:54:52.982Z,1026.45
2019-02-27T00:55:53.071Z,1026.47
2019-02-27T00:56:53.221Z,1026.46
2019-02-27T00:57:54.350Z,1026.40
2019-02-27T00:58:52.906Z,1026.41
2019-02-27T00:59:53.075Z,1026.43
2019-02-27T01:00:52.961Z,1026.37
2019-02-27T01:01:52.897Z,1026.39
2019-02-27T01:02:53.694Z,1026.39
2019-02-27T01:03:52.854Z,1026.37
2019-02-27T01:04:52.847Z,1026.36
2019-02-27T01:05:52.826Z,1026.39
2019-02-27T01:06:53.371Z,1026.36
2019-02-27T01:07:54.226Z,1026.34
2019-02-27T01:08:52.798Z,1026.32
2019-02-27T01:09:52.793Z,1026.34
2019-02-27T01:10:52.892Z,1026.32
2019-02-27T01:11:52.761Z,1026.34
2019-02-27T01:12:57.751Z,1026.33
2019-02-27T01:13:53.744Z,1026.34
2019-02-27T01:14:52.722Z,1026.30
2019-02-27T01:15:52.713Z,1026.28
2019-02-27T01:16:52.707Z,1026.23
2019-02-27T01:17:55.019Z,1026.26
2019-02-27T01:18:53.304Z,1026.22
2019-02-27T01:19:53.099Z,1026.23
2019-02-27T01:20:52.690Z,1026.27
2019-02-27T01:21:52.645Z,1026.19
2019-02-27T01:22:52.643Z,1026.30
2019-02-27T01:23:52.634Z,1026.24
2019-02-27T01:24:52.854Z,1026.27
2019-02-27T01:25:56.136Z,1026.24
2019-02-27T01:26:54.466Z,1026.21
2019-02-27T01:27:52.598Z,1026.23
2019-02-27T01:28:52.589Z,1026.24
2019-02-27T01:29:52.563Z,1026.25
2019-02-27T01:30:52.725Z,1026.22
2019-02-27T01:31:55.006Z,1026.20
2019-02-27T01:32:53.531Z,1026.22
2019-02-27T01:33:52.522Z,1026.21
2019-02-27T01:34:52.621Z,1026.20
2019-02-27T01:35:52.498Z,1026.23
2019-02-27T01:36:57.585Z,1026.21
2019-02-27T01:37:53.499Z,1026.22
2019-02-27T01:38:52.511Z,1026.17
2019-02-27T01:39:52.455Z,1026.18
2019-02-27T01:40:52.434Z,1026.20
2019-02-27T01:41:52.443Z,1026.16
2019-02-27T01:42:52.597Z,1026.22
2019-02-27T01:43:52.918Z,1026.22
2019-02-27T01:44:52.413Z,1026.23
2019-02-27T01:45:54.294Z,1026.18
2019-02-27T01:46:54.526Z,1026.19
2019-02-27T01:47:52.597Z,1026.19
2019-02-27T01:48:54.305Z,1026.15
2019-02-27T01:49:52.389Z,1026.13
2019-02-27T01:50:54.961Z,1026.15
2019-02-27T01:51:52.433Z,1026.13
2019-02-27T01:52:52.304Z,1026.11
2019-02-27T01:53:52.338Z,1026.02
2019-02-27T01:54:52.523Z,1026.04
2019-02-27T01:55:56.169Z,1026.04
2019-02-27T01:56:52.270Z,1026.01
2019-02-27T01:57:52.273Z,1025.98
2019-02-27T01:58:52.256Z,1025.95
2019-02-27T01:59:52.230Z,1025.91
2019-02-27T02:00:56.099Z,1025.89
2019-02-27T02:01:52.216Z,1025.86
2019-02-27T02:02:52.185Z,1025.83
2019-02-27T02:03:52.184Z,1025.78
2019-02-27T02:04:53.718Z,1025.75
2019-02-27T02:05:52.170Z,1025.77
2019-02-27T02:06:52.832Z,1025.74
2019-02-27T02:07:52.389Z,1025.76
2019-02-27T02:08:52.874Z,1025.79
2019-02-27T02:09:55.190Z,1025.78
2019-02-27T02:10:52.104Z,1025.72
2019-02-27T02:11:52.210Z,1025.68
2019-02-27T02:12:52.085Z,1025.67
2019-02-27T02:13:52.085Z,1025.64
2019-02-27T02:14:54.460Z,1025.65
2019-02-27T02:15:52.053Z,1025.62
2019-02-27T02:16:55.246Z,1025.62
2019-02-27T02:17:52.138Z,1025.59
2019-02-27T02:18:52.328Z,1025.59
2019-02-27T02:19:54.276Z,1025.58
2019-02-27T02:20:52.712Z,1025.52
2019-02-27T02:21:51.987Z,1025.59
2019-02-27T02:22:52.094Z,1025.56
2019-02-27T02:23:52.052Z,1025.54
2019-02-27T02:24:54.225Z,1025.55
2019-02-27T02:25:51.942Z,1025.53
2019-02-27T02:26:51.922Z,1025.53
2019-02-27T02:27:51.920Z,1025.50
2019-02-27T02:28:52.075Z,1025.53
2019-02-27T02:29:53.160Z,1025.52
2019-02-27T02:30:51.896Z,1025.54
2019-02-27T02:31:52.061Z,1025.47
2019-02-27T02:32:53.171Z,1025.50
2019-02-27T02:33:51.857Z,1025.42
2019-02-27T02:34:52.179Z,1025.41
2019-02-27T02:35:52.186Z,1025.38
2019-02-27T02:36:51.869Z,1025.33
2019-02-27T02:37:52.586Z,1025.36
2019-02-27T02:38:51.910Z,1025.39
2019-02-27T02:39:54.701Z,1025.34
2019-02-27T02:40:51.902Z,1025.32
2019-02-27T02:41:52.771Z,1025.34
2019-02-27T02:42:51.781Z,1025.31
2019-02-27T02:43:51.762Z,1025.31
2019-02-27T02:44:57.087Z,1025.32
2019-02-27T02:45:52.716Z,1025.29
2019-02-27T02:46:54.726Z,1025.24
2019-02-27T02:47:55.418Z,1025.27
2019-02-27T02:48:51.700Z,1025.31
2019-02-27T02:49:51.678Z,1025.32
2019-02-27T02:50:54.355Z,1025.27
2019-02-27T02:51:51.689Z,1025.30
2019-02-27T02:52:52.021Z,1025.30
2019-02-27T02:53:51.724Z,1025.27
2019-02-27T02:54:52.076Z,1025.29
2019-02-27T02:55:51.785Z,1025.29
2019-02-27T02:56:51.914Z,1025.27
2019-02-27T02:57:51.811Z,1025.30
2019-02-27T02:58:52.069Z,1025.26
2019-02-27T02:59:51.744Z,1025.27
2019-02-27T03:00:51.550Z,1025.23
2019-02-27T03:01:51.553Z,1025.25
2019-02-27T03:02:51.534Z,1025.27
2019-02-27T03:03:51.950Z,1025.24
2019-02-27T03:04:51.505Z,1025.21
2019-02-27T03:05:58.628Z,1025.21
2019-02-27T03:06:54.371Z,1025.22
2019-02-27T03:07:51.469Z,1025.23
2019-02-27T03:08:54.907Z,1025.27
2019-02-27T03:09:51.727Z,1025.26
2019-02-27T03:10:51.499Z,1025.27
2019-02-27T03:11:54.815Z,1025.28
2019-02-27T03:12:51.723Z,1025.27
2019-02-27T03:13:51.422Z,1025.28
2019-02-27T03:14:54.152Z,1025.29
2019-02-27T03:15:51.540Z,1025.31
2019-02-27T03:16:51.372Z,1025.30
2019-02-27T03:17:54.802Z,1025.30
2019-02-27T03:18:52.034Z,1025.31
2019-02-27T03:19:51.428Z,1025.29
2019-02-27T03:20:52.328Z,1025.27
2019-02-27T03:21:51.740Z,1025.28
2019-02-27T03:22:51.319Z,1025.30
2019-02-27T03:23:52.472Z,1025.24
2019-02-27T03:24:51.298Z,1025.28
2019-02-27T03:25:52.266Z,1025.24
2019-02-27T03:26:53.021Z,1025.27
2019-02-27T03:27:53.934Z,1025.25
2019-02-27T03:28:51.248Z,1025.26
2019-02-27T03:29:53.410Z,1025.23
2019-02-27T03:30:51.231Z,1025.20
2019-02-27T03:31:57.505Z,1025.21
2019-02-27T03:32:52.229Z,1025.18
2019-02-27T03:33:51.205Z,1025.17
2019-02-27T03:34:52.433Z,1025.17
2019-02-27T03:35:51.180Z,1025.19
2019-02-27T03:36:51.173Z,1025.15
2019-02-27T03:37:51.325Z,1025.15
2019-02-27T03:38:51.307Z,1025.15
2019-02-27T03:39:51.139Z,1025.11
2019-02-27T03:41:05.872Z,1025.10
2019-02-27T03:41:51.126Z,1025.13
2019-02-27T03:42:51.131Z,1025.09
2019-02-27T03:43:51.256Z,1025.11
2019-02-27T03:44:55.840Z,1025.09
2019-02-27T03:45:52.066Z,1025.10
2019-02-27T03:46:51.179Z,1025.11
2019-02-27T03:47:52.169Z,1025.12
2019-02-27T03:48:51.026Z,1025.08
2019-02-27T03:49:51.125Z,1025.12
2019-02-27T03:50:51.058Z,1025.12
2019-02-27T03:51:50.996Z,1025.11
2019-02-27T03:52:50.987Z,1025.10
2019-02-27T03:53:50.990Z,1025.13
2019-02-27T03:54:56.972Z,1025.10
2019-02-27T03:55:52.251Z,1025.13
2019-02-27T03:56:50.945Z,1025.09
2019-02-27T03:57:54.853Z,1025.08
2019-02-27T03:58:51.915Z,1025.09
2019-02-27T03:59:50.938Z,1025.08
2019-02-27T04:00:53.845Z,1025.09
2019-02-27T04:01:51.075Z,1025.07
2019-02-27T04:02:50.876Z,1025.06
2019-02-27T04:03:55.256Z,1025.05
2019-02-27T04:04:50.878Z,1025.05
2019-02-27T04:05:50.887Z,1025.01
2019-02-27T04:06:53.115Z,1025.04
2019-02-27T04:07:53.555Z,1025.04
2019-02-27T04:08:50.825Z,1025.07
2019-02-27T04:09:55.068Z,1025.06
2019-02-27T04:10:50.803Z,1025.08
2019-02-27T04:11:50.793Z,1025.01
2019-02-27T04:12:51.742Z,1024.99
2019-02-27T04:13:51.130Z,1025.00
2019-02-27T04:14:50.747Z,1025.03
2019-02-27T04:15:53.785Z,1024.98
2019-02-27T04:16:50.730Z,1024.98
2019-02-27T04:17:53.134Z,1025.04
2019-02-27T04:18:51.017Z,1024.99
2019-02-27T04:19:50.692Z,1025.00
2019-02-27T04:20:51.011Z,1024.97
2019-02-27T04:21:50.677Z,1024.97
2019-02-27T04:22:50.714Z,1024.94
2019-02-27T04:23:50.659Z,1024.93
2019-02-27T04:24:56.248Z,1024.89
2019-02-27T04:25:51.879Z,1024.91
2019-02-27T04:26:50.684Z,1024.93
2019-02-27T04:27:55.257Z,1024.88
2019-02-27T04:28:51.645Z,1024.96
2019-02-27T04:29:50.610Z,1024.89
2019-02-27T04:30:51.941Z,1024.93
2019-02-27T04:31:50.632Z,1024.90
2019-02-27T04:32:55.328Z,1024.91
2019-02-27T04:33:51.260Z,1024.87
2019-02-27T04:34:50.546Z,1024.87
2019-02-27T04:35:50.629Z,1024.88
2019-02-27T04:36:50.510Z,1024.82
2019-02-27T04:37:53.846Z,1024.81
2019-02-27T04:38:51.226Z,1024.82
2019-02-27T04:39:51.374Z,1024.85
2019-02-27T04:40:50.474Z,1024.88
2019-02-27T04:41:52.042Z,1024.86
2019-02-27T04:42:51.269Z,1024.83
2019-02-27T04:43:50.449Z,1024.86
2019-02-27T04:44:50.620Z,1024.84
2019-02-27T04:45:50.415Z,1024.83
2019-02-27T04:46:54.795Z,1024.85
2019-02-27T04:47:51.392Z,1024.85
2019-02-27T04:48:50.401Z,1024.84
2019-02-27T04:49:50.376Z,1024.82
2019-02-27T04:50:51.253Z,1024.84
2019-02-27T04:51:50.626Z,1024.79
2019-02-27T04:52:50.461Z,1024.79
2019-02-27T04:53:50.375Z,1024.78
2019-02-27T04:54:50.319Z,1024.76
2019-02-27T04:55:50.639Z,1024.75
2019-02-27T04:56:50.780Z,1024.77
2019-02-27T04:57:50.503Z,1024.78
2019-02-27T04:58:50.281Z,1024.78
2019-02-27T04:59:52.379Z,1024.75
2019-02-27T05:00:50.257Z,1024.72
2019-02-27T05:01:50.259Z,1024.71
2019-02-27T05:02:53.299Z,1024.68
2019-02-27T05:03:50.226Z,1024.71
2019-02-27T05:04:50.210Z,1024.66
2019-02-27T05:05:50.209Z,1024.67
2019-02-27T05:06:50.187Z,1024.65
2019-02-27T05:07:54.121Z,1024.64
2019-02-27T05:08:50.175Z,1024.62
2019-02-27T05:09:50.543Z,1024.65
2019-02-27T05:10:50.156Z,1024.63
2019-02-27T05:11:50.147Z,1024.66
2019-02-27T05:12:50.878Z,1024.62
2019-02-27T05:13:54.054Z,1024.61
2019-02-27T05:14:50.098Z,1024.61
2019-02-27T05:15:50.184Z,1024.55
2019-02-27T05:16:50.116Z,1024.51
2019-02-27T05:17:50.074Z,1024.54
2019-02-27T05:18:50.063Z,1024.53
2019-02-27T05:19:51.990Z,1024.50
2019-02-27T05:20:50.036Z,1024.44
2019-02-27T05:21:52.258Z,1024.44
2019-02-27T05:22:50.158Z,1024.47
2019-02-27T05:23:50.025Z,1024.43
2019-02-27T05:24:50.041Z,1024.44
2019-02-27T05:25:50.156Z,1024.42
2019-02-27T05:26:50.028Z,1024.42
2019-02-27T05:27:49.986Z,1024.44
2019-02-27T05:28:52.498Z,1024.44
2019-02-27T05:29:49.947Z,1024.42
2019-02-27T05:30:49.931Z,1024.45
2019-02-27T05:31:50.147Z,1024.47
2019-02-27T05:32:49.906Z,1024.47
2019-02-27T05:33:49.939Z,1024.47
2019-02-27T05:34:50.545Z,1024.51
2019-02-27T05:35:49.912Z,1024.51
2019-02-27T05:36:49.879Z,1024.51
2019-02-27T05:37:49.928Z,1024.50
2019-02-27T05:38:49.845Z,1024.54
2019-02-27T05:39:51.221Z,1024.55
2019-02-27T05:40:50.323Z,1024.52
2019-02-27T05:41:50.147Z,1024.56
2019-02-27T05:42:49.796Z,1024.55
2019-02-27T05:43:49.934Z,1024.52
2019-02-27T05:44:49.789Z,1024.50
2019-02-27T05:45:50.402Z,1024.52
2019-02-27T05:46:49.772Z,1024.50
2019-02-27T05:47:49.782Z,1024.50
2019-02-27T05:48:50.836Z,1024.51
2019-02-27T05:49:50.435Z,1024.45
2019-02-27T05:50:49.723Z,1024.50
2019-02-27T05:51:50.066Z,1024.46
2019-02-27T05:52:49.741Z,1024.45
2019-02-27T05:53:49.713Z,1024.48
2019-02-27T05:54:49.728Z,1024.44
2019-02-27T05:55:49.654Z,1024.46
2019-02-27T05:56:58.058Z,1024.51
2019-02-27T05:57:49.855Z,1024.52
2019-02-27T05:58:49.851Z,1024.46
2019-02-27T05:59:49.732Z,1024.44
2019-02-27T06:00:49.836Z,1024.46
2019-02-27T06:01:49.700Z,1024.48
2019-02-27T06:02:49.851Z,1024.43
2019-02-27T06:03:52.123Z,1024.43
2019-02-27T06:04:49.567Z,1024.43
2019-02-27T06:05:49.917Z,1024.41
2019-02-27T06:06:49.558Z,1024.42
2019-02-27T06:07:49.534Z,1024.42
2019-02-27T06:08:49.536Z,1024.39
2019-02-27T06:09:49.819Z,1024.43
2019-02-27T06:10:49.498Z,1024.40
2019-02-27T06:11:49.477Z,1024.41
2019-02-27T06:12:49.495Z,1024.41
2019-02-27T06:13:49.470Z,1024.38
2019-02-27T06:14:54.846Z,1024.36
2019-02-27T06:15:49.763Z,1024.37
2019-02-27T06:16:52.596Z,1024.37
2019-02-27T06:17:51.597Z,1024.37
2019-02-27T06:18:51.156Z,1024.34
2019-02-27T06:19:49.413Z,1024.36
2019-02-27T06:20:49.414Z,1024.36
2019-02-27T06:21:50.467Z,1024.33
2019-02-27T06:22:49.367Z,1024.33
2019-02-27T06:23:49.356Z,1024.31
2019-02-27T06:24:49.338Z,1024.34
2019-02-27T06:25:50.062Z,1024.29
2019-02-27T06:26:49.335Z,1024.36
2019-02-27T06:27:50.044Z,1024.32
2019-02-27T06:28:49.740Z,1024.34
2019-02-27T06:29:49.284Z,1024.33
2019-02-27T06:30:49.762Z,1024.27
2019-02-27T06:31:49.802Z,1024.26
2019-02-27T06:32:49.391Z,1024.31
2019-02-27T06:33:49.287Z,1024.26
2019-02-27T06:34:49.242Z,1024.21
2019-02-27T06:35:49.480Z,1024.20
2019-02-27T06:36:49.930Z,1024.20
2019-02-27T06:37:50.736Z,1024.19
2019-02-27T06:38:49.369Z,1024.14
2019-02-27T06:39:51.218Z,1024.13
2019-02-27T06:40:49.427Z,1024.15
2019-02-27T06:41:49.794Z,1024.21
2019-02-27T06:42:53.364Z,1024.20
2019-02-27T06:43:49.151Z,1024.17
2019-02-27T06:44:51.286Z,1024.19
2019-02-27T06:45:50.009Z,1024.17
2019-02-27T06:46:53.449Z,1024.15
2019-02-27T06:47:49.146Z,1024.12
2019-02-27T06:48:49.094Z,1024.15
2019-02-27T06:49:51.972Z,1024.14
2019-02-27T06:50:49.072Z,1024.14
2019-02-27T06:51:53.317Z,1024.16
2019-02-27T06:52:49.272Z,1024.14
2019-02-27T06:53:49.463Z,1024.11
2019-02-27T06:54:51.903Z,1024.10
2019-02-27T06:55:49.013Z,1024.12
2019-02-27T06:56:49.195Z,1024.09
2019-02-27T06:57:50.761Z,1024.14
2019-02-27T06:58:55.317Z,1024.15
2019-02-27T06:59:50.873Z,1024.08
2019-02-27T07:00:49.879Z,1024.07
2019-02-27T07:01:48.955Z,1024.03
2019-02-27T07:02:48.935Z,1024.12
2019-02-27T07:03:49.354Z,1024.05
2019-02-27T07:04:49.110Z,1024.07
2019-02-27T07:05:48.931Z,1024.10
2019-02-27T07:06:48.992Z,1024.12
2019-02-27T07:07:48.878Z,1024.07
2019-02-27T07:08:48.920Z,1024.11
2019-02-27T07:09:48.850Z,1024.11
2019-02-27T07:10:49.255Z,1024.06
2019-02-27T07:11:48.963Z,1024.04
2019-02-27T07:12:48.822Z,1024.03
2019-02-27T07:13:48.833Z,1024.01
2019-02-27T07:14:48.807Z,1024.02
2019-02-27T07:15:48.896Z,1024.04
2019-02-27T07:16:49.068Z,1023.98
2019-02-27T07:17:48.880Z,1024.01
2019-02-27T07:18:48.834Z,1023.94
2019-02-27T07:19:49.705Z,1023.97
2019-02-27T07:20:48.789Z,1024.01
2019-02-27T07:21:48.777Z,1024.02
2019-02-27T07:22:50.112Z,1024.00
2019-02-27T07:23:48.702Z,1023.96
2019-02-27T07:24:48.912Z,1024.01
2019-02-27T07:25:48.683Z,1024.02
2019-02-27T07:26:50.257Z,1024.03
2019-02-27T07:27:48.695Z,1024.02
2019-02-27T07:28:50.271Z,1024.01
2019-02-27T07:29:51.275Z,1024.04
2019-02-27T07:30:48.696Z,1023.93
2019-02-27T07:31:49.500Z,1023.93
2019-02-27T07:32:48.882Z,1023.93
2019-02-27T07:33:49.535Z,1023.95
2019-02-27T07:34:49.786Z,1023.93
2019-02-27T07:35:48.578Z,1023.97
2019-02-27T07:36:48.652Z,1023.84
2019-02-27T07:37:50.116Z,1023.83
2019-02-27T07:38:48.696Z,1023.85
2019-02-27T07:39:48.749Z,1023.85
2019-02-27T07:40:49.043Z,1023.85
2019-02-27T07:42:04.013Z,1023.81
2019-02-27T07:42:49.167Z,1023.75
2019-02-27T07:43:48.690Z,1023.77
2019-02-27T07:44:48.561Z,1023.77
2019-02-27T07:45:48.813Z,1023.77
2019-02-27T07:46:51.309Z,1023.72
2019-02-27T07:47:48.732Z,1023.69
2019-02-27T07:48:48.566Z,1023.66
2019-02-27T07:49:48.757Z,1023.62
2019-02-27T07:50:49.381Z,1023.65
2019-02-27T07:51:49.177Z,1023.71
2019-02-27T07:52:52.061Z,1023.67
2019-02-27T07:53:51.388Z,1023.63
2019-02-27T07:54:49.364Z,1023.65
2019-02-27T07:55:48.702Z,1023.62
2019-02-27T07:56:49.519Z,1023.63
2019-02-27T07:57:48.671Z,1023.66
2019-02-27T07:58:48.615Z,1023.59
2019-02-27T07:59:48.681Z,1023.63
2019-02-27T08:00:49.845Z,1023.56
2019-02-27T08:01:48.654Z,1023.56
2019-02-27T08:02:49.238Z,1023.56
2019-02-27T08:03:48.587Z,1023.58
2019-02-27T08:04:48.922Z,1023.56
2019-02-27T08:05:48.514Z,1023.58
2019-02-27T08:06:48.708Z,1023.50
2019-02-27T08:07:49.932Z,1023.53
2019-02-27T08:08:49.460Z,1023.43
2019-02-27T08:09:48.530Z,1023.48
2019-02-27T08:10:48.656Z,1023.52
2019-02-27T08:11:48.543Z,1023.54
2019-02-27T08:12:49.332Z,1023.53
2019-02-27T08:13:48.514Z,1023.52
2019-02-27T08:14:48.736Z,1023.49
2019-02-27T08:15:49.154Z,1023.50
2019-02-27T08:16:48.645Z,1023.43
2019-02-27T08:17:50.304Z,1023.47
2019-02-27T08:18:48.726Z,1023.47
2019-02-27T08:19:50.924Z,1023.40
2019-02-27T08:20:48.703Z,1023.39
2019-02-27T08:21:48.779Z,1023.41
2019-02-27T08:22:49.673Z,1023.42
2019-02-27T08:23:49.376Z,1023.46
2019-02-27T08:24:48.597Z,1023.38
2019-02-27T08:25:49.504Z,1023.40
2019-02-27T08:26:49.184Z,1023.41
2019-02-27T08:27:48.717Z,1023.40
2019-02-27T08:28:49.244Z,1023.43
2019-02-27T08:29:49.226Z,1023.39
2019-02-27T08:30:48.568Z,1023.40
2019-02-27T08:31:48.736Z,1023.39
2019-02-27T08:32:48.544Z,1023.30
2019-02-27T08:33:54.217Z,1023.30
2019-02-27T08:34:48.545Z,1023.30
2019-02-27T08:35:49.226Z,1023.30
2019-02-27T08:36:48.494Z,1023.31
2019-02-27T08:37:48.908Z,1023.30
2019-02-27T08:38:48.785Z,1023.36
2019-02-27T08:39:48.723Z,1023.32
2019-02-27T08:40:50.497Z,1023.33
2019-02-27T08:41:48.659Z,1023.35
2019-02-27T08:42:48.825Z,1023.36
2019-02-27T08:43:48.684Z,1023.34
2019-02-27T08:44:48.649Z,1023.37
2019-02-27T08:45:51.281Z,1023.33
2019-02-27T08:46:48.462Z,1023.31
2019-02-27T08:47:48.476Z,1023.35
2019-02-27T08:48:50.185Z,1023.34
2019-02-27T08:49:49.104Z,1023.36
2019-02-27T08:50:48.624Z,1023.36
2019-02-27T08:51:49.430Z,1023.31
2019-02-27T08:52:51.490Z,1023.29
2019-02-27T08:53:48.883Z,1023.26
2019-02-27T08:54:48.589Z,1023.20
2019-02-27T08:55:48.457Z,1023.24
2019-02-27T08:56:48.482Z,1023.21
2019-02-27T08:57:55.516Z,1023.20
2019-02-27T08:58:48.732Z,1023.20
2019-02-27T08:59:48.533Z,1023.19
2019-02-27T09:00:51.737Z,1023.18
2019-02-27T09:01:48.684Z,1023.14
2019-02-27T09:02:48.044Z,1023.15
2019-02-27T09:03:47.789Z,1023.16
2019-02-27T09:04:47.583Z,1023.17
2019-02-27T09:05:50.993Z,1023.13
2019-02-27T09:06:49.236Z,1023.17
2019-02-27T09:07:47.546Z,1023.12
2019-02-27T09:08:49.308Z,1023.12
2019-02-27T09:09:51.626Z,1023.04
2019-02-27T09:10:47.512Z,1023.09
2019-02-27T09:11:47.499Z,1023.04
2019-02-27T09:12:49.505Z,1022.98
2019-02-27T09:13:49.042Z,1023.02
2019-02-27T09:14:49.076Z,1022.99
2019-02-27T09:15:47.473Z,1023.00
2019-02-27T09:16:47.683Z,1023.00
2019-02-27T09:17:48.790Z,1022.97
2019-02-27T09:18:47.466Z,1022.97
2019-02-27T09:19:47.445Z,1022.92
2019-02-27T09:20:53.267Z,1022.96
2019-02-27T09:21:47.416Z,1022.87
2019-02-27T09:22:47.614Z,1022.92
2019-02-27T09:23:47.504Z,1022.92
2019-02-27T09:24:47.385Z,1022.87
2019-02-27T09:25:47.353Z,1022.88
2019-02-27T09:26:49.304Z,1022.89
2019-02-27T09:27:48.216Z,1022.85
2019-02-27T09:28:47.318Z,1022.86
2019-02-27T09:29:52.248Z,1022.83
2019-02-27T09:30:51.172Z,1022.77
2019-02-27T09:31:50.682Z,1022.82
2019-02-27T09:32:47.282Z,1022.80
2019-02-27T09:33:47.403Z,1022.76
2019-02-27T09:34:47.255Z,1022.74
2019-02-27T09:35:47.240Z,1022.74
2019-02-27T09:36:49.114Z,1022.77
2019-02-27T09:37:48.351Z,1022.73
2019-02-27T09:38:47.205Z,1022.69
2019-02-27T09:39:47.194Z,1022.68
2019-02-27T09:40:47.182Z,1022.69
2019-02-27T09:41:47.321Z,1022.69
2019-02-27T09:42:47.193Z,1022.70
2019-02-27T09:43:47.148Z,1022.67
2019-02-27T09:44:47.357Z,1022.65
2019-02-27T09:45:47.206Z,1022.69
2019-02-27T09:46:47.121Z,1022.64
2019-02-27T09:47:47.112Z,1022.62
2019-02-27T09:48:47.145Z,1022.58
2019-02-27T09:49:47.104Z,1022.59
2019-02-27T09:50:48.256Z,1022.61
2019-02-27T09:51:47.071Z,1022.58
2019-02-27T09:52:47.083Z,1022.64
2019-02-27T09:53:47.073Z,1022.63
2019-02-27T09:54:47.591Z,1022.62
2019-02-27T09:55:47.042Z,1022.58
2019-02-27T09:56:47.292Z,1022.57
2019-02-27T09:57:47.016Z,1022.54
2019-02-27T09:58:46.983Z,1022.50
2019-02-27T09:59:46.981Z,1022.49
2019-02-27T10:00:47.037Z,1022.53
2019-02-27T10:01:46.945Z,1022.50
2019-02-27T10:03:05.210Z,1022.49
2019-02-27T10:03:47.215Z,1022.46
2019-02-27T10:04:47.672Z,1022.44
2019-02-27T10:05:47.122Z,1022.49
2019-02-27T10:09:37.153Z,1022.47
2019-02-27T10:10:11.041Z,1022.44
2019-02-27T10:11:10.799Z,1022.41
2019-02-27T10:12:10.707Z,1022.42
2019-02-27T10:13:10.715Z,1022.43
2019-02-27T10:14:10.680Z,1022.47
2019-02-27T10:15:10.690Z,1022.39
2019-02-27T10:16:10.675Z,1022.41
2019-02-27T10:17:10.683Z,1022.42
2019-02-27T10:18:10.637Z,1022.41
2019-02-27T10:19:10.701Z,1022.40
2019-02-27T10:20:10.609Z,1022.42
2019-02-27T10:21:12.143Z,1022.43
2019-02-27T10:22:10.595Z,1022.45
2019-02-27T10:23:10.577Z,1022.39
2019-02-27T10:24:10.577Z,1022.44
2019-02-27T10:25:10.616Z,1022.44
2019-02-27T10:26:10.569Z,1022.45
2019-02-27T10:27:10.564Z,1022.44
2019-02-27T10:28:10.749Z,1022.44
2019-02-27T10:29:10.978Z,1022.47
2019-02-27T10:30:11.720Z,1022.45
2019-02-27T10:31:10.505Z,1022.31
2019-02-27T10:32:10.503Z,1022.35
2019-02-27T10:33:11.187Z,1022.36
2019-02-27T10:34:10.503Z,1022.30
2019-02-27T10:35:10.457Z,1022.32
2019-02-27T10:36:10.779Z,1022.28
2019-02-27T10:37:12.806Z,1022.30
2019-02-27T10:38:10.479Z,1022.23
2019-02-27T10:39:10.422Z,1022.28
2019-02-27T10:40:11.442Z,1022.21
2019-02-27T10:41:10.440Z,1022.19
2019-02-27T10:42:10.396Z,1022.15
2019-02-27T10:43:10.379Z,1022.18
2019-02-27T10:44:10.358Z,1022.10
2019-02-27T10:45:10.720Z,1022.12
2019-02-27T10:46:10.341Z,1022.07
2019-02-27T10:47:10.374Z,1022.09
2019-02-27T10:48:12.607Z,1022.07
2019-02-27T10:49:10.318Z,1022.02
2019-02-27T10:50:10.296Z,1021.99
2019-02-27T10:51:10.293Z,1022.03
2019-02-27T10:52:10.281Z,1021.99
2019-02-27T10:53:10.281Z,1021.99
2019-02-27T10:54:10.274Z,1021.98
2019-02-27T10:55:11.217Z,1021.95
2019-02-27T10:56:10.235Z,1021.89
2019-02-27T10:57:10.226Z,1021.93
2019-02-27T10:58:12.779Z,1021.92
2019-02-27T10:59:10.236Z,1021.87
2019-02-27T11:00:10.190Z,1021.89
2019-02-27T11:01:10.224Z,1021.87
2019-02-27T11:02:12.514Z,1021.86
2019-02-27T11:03:10.192Z,1021.85
2019-02-27T11:04:10.151Z,1021.82
2019-02-27T11:05:10.155Z,1021.79
2019-02-27T11:06:10.158Z,1021.80
2019-02-27T11:07:10.130Z,1021.77
2019-02-27T11:08:10.103Z,1021.81
2019-02-27T11:09:10.133Z,1021.82
2019-02-27T11:10:10.089Z,1021.76
2019-02-27T11:11:10.089Z,1021.73
2019-02-27T11:12:10.101Z,1021.77
2019-02-27T11:13:10.075Z,1021.72
2019-02-27T11:14:10.058Z,1021.68
2019-02-27T11:15:10.035Z,1021.68
2019-02-27T11:16:10.024Z,1021.67
2019-02-27T11:17:10.029Z,1021.69
2019-02-27T11:18:10.026Z,1021.71
2019-02-27T11:19:10.000Z,1021.69
2019-02-27T11:20:09.979Z,1021.63
2019-02-27T11:21:09.990Z,1021.62
2019-02-27T11:22:09.957Z,1021.58
2019-02-27T11:23:09.963Z,1021.61
2019-02-27T11:24:09.934Z,1021.63
2019-02-27T11:25:09.932Z,1021.62
2019-02-27T11:26:09.911Z,1021.59
2019-02-27T11:27:09.933Z,1021.57
2019-02-27T11:28:09.907Z,1021.59
2019-02-27T11:29:09.903Z,1021.55
2019-02-27T11:30:09.889Z,1021.57
2019-02-27T11:31:11.067Z,1021.53
2019-02-27T11:32:09.878Z,1021.51
2019-02-27T11:33:09.846Z,1021.42
2019-02-27T11:34:09.835Z,1021.44
2019-02-27T11:35:09.834Z,1021.42
2019-02-27T11:36:09.816Z,1021.39
2019-02-27T11:37:12.994Z,1021.47
2019-02-27T11:38:09.822Z,1021.44
2019-02-27T11:39:09.781Z,1021.42
2019-02-27T11:40:09.781Z,1021.39
2019-02-27T11:41:09.774Z,1021.35
2019-02-27T11:42:09.765Z,1021.33
2019-02-27T11:43:09.735Z,1021.36
2019-02-27T11:44:14.157Z,1021.32
2019-02-27T11:45:09.719Z,1021.25
2019-02-27T11:46:09.726Z,1021.25
2019-02-27T11:47:11.330Z,1021.23
2019-02-27T11:48:09.727Z,1021.18
2019-02-27T11:49:09.683Z,1021.15
2019-02-27T11:50:09.665Z,1021.16
2019-02-27T11:51:09.660Z,1021.16
2019-02-27T11:52:09.652Z,1021.10
2019-02-27T11:53:09.653Z,1021.07
2019-02-27T11:54:09.705Z,1021.07
2019-02-27T11:55:09.623Z,1021.01
2019-02-27T11:56:09.596Z,1020.98
2019-02-27T11:57:09.588Z,1020.96
2019-02-27T11:58:09.590Z,1020.87
2019-02-27T11:59:12.558Z,1020.89
2019-02-27T12:00:09.601Z,1020.83
2019-02-27T12:01:09.568Z,1020.85
2019-02-27T12:02:09.545Z,1020.82
2019-02-27T12:03:11.152Z,1020.83
2019-02-27T12:04:09.546Z,1020.78
2019-02-27T12:05:09.609Z,1020.76
2019-02-27T12:06:09.520Z,1020.78
2019-02-27T12:07:09.520Z,1020.75
2019-02-27T12:08:11.315Z,1020.73